createdAt,value
2018-12-27T03:34:42.609Z,2.50
2018-12-27T03:37:11.496Z,2.50
2018-12-27T03:39:40.437Z,2.50
2018-12-27T03:42:09.207Z,2.40
2018-12-27T03:44:37.928Z,2.40
2018-12-27T03:47:06.739Z,2.40
2018-12-27T03:49:35.513Z,2.30
2018-12-27T03:52:04.447Z,2.30
2018-12-27T03:54:33.502Z,2.30
2018-12-27T03:57:02.835Z,2.40
2018-12-27T03:59:31.724Z,2.40
2018-12-27T04:02:00.442Z,2.40
2018-12-27T04:04:29.472Z,2.40
2018-12-27T04:06:58.912Z,2.40
2018-12-27T04:09:27.804Z,2.30
2018-12-27T04:11:57.114Z,2.40
2018-12-27T04:14:26.175Z,2.40
2018-12-27T04:16:55.013Z,2.40
2018-12-27T04:19:23.582Z,2.30
2018-12-27T04:21:52.131Z,2.20
2018-12-27T04:24:20.518Z,2.30
2018-12-27T04:26:49.327Z,2.30
2018-12-27T04:29:17.819Z,2.30
2018-12-27T04:31:47.210Z,2.30
2018-12-27T04:34:16.067Z,2.30
2018-12-27T04:36:44.712Z,2.30
2018-12-27T04:39:13.364Z,2.30
2018-12-27T04:41:42.089Z,2.40
2018-12-27T04:44:10.767Z,2.30
2018-12-27T04:46:39.415Z,2.40
2018-12-27T04:49:08.221Z,2.50
2018-12-27T08:10:27.266Z,2.70
2018-12-27T08:12:55.639Z,2.70
2018-12-27T08:15:24.072Z,2.70
2018-12-27T08:17:52.477Z,2.70
2018-12-27T08:20:21.398Z,2.70
2018-12-27T08:22:49.826Z,2.70
2018-12-27T08:25:18.225Z,2.70
2018-12-27T08:27:47.150Z,2.70
2018-12-27T08:32:44.020Z,2.80
2018-12-27T08:35:12.656Z,2.90
2018-12-27T08:37:41.355Z,2.90
2018-12-27T08:40:10.087Z,2.90
2018-12-27T08:42:38.478Z,2.90
2018-12-27T08:45:07.245Z,2.90
2018-12-27T08:47:35.934Z,2.90
2018-12-27T08:50:06.810Z,3.00
2018-12-27T08:52:35.710Z,3.00
2018-12-27T08:55:05.244Z,3.10
2018-12-27T08:57:33.890Z,3.10
2018-12-27T09:00:02.635Z,3.20
2018-12-27T09:02:31.362Z,3.20
2018-12-27T09:04:59.823Z,3.20
2018-12-27T09:07:28.318Z,3.20
2018-12-27T09:09:56.825Z,3.10
2018-12-27T09:12:25.217Z,3.10
2018-12-27T09:14:54.068Z,3.10
2018-12-27T09:17:22.471Z,3.10
2018-12-27T09:19:50.866Z,3.10
2018-12-27T09:22:19.350Z,3.00
2018-12-27T09:24:47.951Z,3.00
2018-12-27T09:27:16.363Z,3.10
2018-12-27T09:29:45.029Z,3.10
2018-12-27T09:32:13.818Z,3.10
2018-12-27T09:34:42.745Z,3.10
2018-12-27T09:37:11.508Z,3.10
2018-12-27T09:39:39.890Z,3.10
2018-12-27T09:42:08.348Z,3.10
2018-12-27T09:44:37.183Z,3.20
2018-12-27T09:47:05.809Z,3.10
2018-12-27T09:49:34.626Z,3.10
2018-12-27T09:52:03.633Z,3.20
2018-12-27T09:54:32.023Z,3.20
2018-12-27T09:57:00.688Z,3.10
2018-12-27T09:59:30.714Z,3.20
2018-12-27T10:01:59.218Z,3.30
2018-12-27T10:04:27.683Z,3.20
2018-12-27T10:06:56.192Z,3.30
2018-12-27T10:09:24.621Z,3.40
2018-12-27T10:11:53.218Z,3.40
2018-12-27T10:14:21.727Z,3.40
2018-12-27T10:16:50.207Z,3.40
2018-12-27T10:19:18.901Z,3.40
2018-12-27T10:21:47.395Z,3.40
2018-12-27T10:24:15.785Z,3.40
2018-12-27T10:26:44.548Z,3.40
2018-12-27T10:29:13.395Z,3.40
2018-12-27T10:31:41.815Z,3.40
2018-12-27T10:34:10.191Z,3.30
2018-12-27T10:36:39.047Z,3.40
2018-12-27T10:39:07.700Z,3.40
2018-12-27T10:41:36.155Z,3.30
2018-12-27T10:44:04.798Z,3.30
2018-12-27T10:46:33.343Z,3.40
2018-12-27T10:49:02.339Z,3.40
2018-12-27T10:51:31.047Z,3.40
2018-12-27T10:53:59.784Z,3.40
2018-12-27T10:56:28.244Z,3.40
2018-12-27T10:58:57.091Z,3.50
2018-12-27T11:01:26.019Z,3.60
2018-12-27T11:03:54.437Z,3.60
2018-12-27T11:06:22.889Z,3.70
2018-12-27T11:08:51.998Z,3.60
2018-12-27T11:11:21.078Z,3.70
2018-12-27T11:13:51.949Z,3.80
2018-12-27T11:16:21.142Z,3.80
2018-12-27T11:18:50.126Z,3.80
2018-12-27T11:21:19.198Z,3.80
2018-12-27T11:23:57.494Z,3.60
2018-12-27T11:26:31.585Z,3.60
2018-12-27T11:29:04.449Z,3.60
2018-12-27T11:31:36.553Z,3.60
2018-12-27T11:34:07.935Z,3.60
2018-12-27T11:36:41.879Z,3.60
2018-12-27T11:39:10.695Z,3.60
2018-12-27T11:41:40.319Z,3.50
2018-12-27T11:44:08.719Z,3.60
2018-12-27T11:46:37.289Z,3.70
2018-12-27T11:49:08.709Z,3.70
2018-12-27T11:51:39.572Z,3.70
2018-12-27T11:54:12.727Z,3.60
2018-12-27T11:56:42.034Z,3.70
2018-12-27T11:59:11.452Z,3.70
2018-12-27T12:01:42.034Z,3.90
2018-12-27T12:04:11.066Z,3.90
2018-12-27T12:06:42.316Z,4.00
2018-12-27T12:09:11.756Z,4.00
2018-12-27T12:11:44.736Z,4.00
2018-12-27T12:14:15.361Z,4.10
2018-12-27T12:16:44.259Z,4.10
2018-12-27T12:19:14.170Z,4.20
2018-12-27T12:21:51.114Z,4.30
2018-12-27T12:24:21.561Z,4.30
2018-12-27T12:26:50.890Z,4.30
2018-12-27T12:29:21.053Z,4.30
2018-12-27T12:31:52.955Z,4.30
2018-12-27T12:34:22.069Z,4.20
2018-12-27T12:36:51.024Z,4.10
2018-12-27T12:39:28.927Z,4.10
2018-12-27T12:42:04.957Z,4.10
2018-12-27T12:44:35.102Z,4.10
2018-12-27T12:47:08.891Z,4.10
2018-12-27T12:49:37.824Z,4.10
2018-12-27T12:52:10.888Z,4.00
2018-12-27T12:54:41.180Z,4.00
2018-12-27T12:57:12.034Z,4.10
2018-12-27T12:59:40.695Z,4.10
2018-12-27T13:02:09.438Z,4.10
2018-12-27T13:04:38.153Z,4.10
2018-12-27T13:07:07.005Z,4.10
2018-12-27T13:09:39.133Z,4.20
2018-12-27T13:12:09.132Z,4.20
2018-12-27T13:14:38.790Z,4.30
2018-12-27T13:17:09.183Z,4.30
2018-12-27T13:19:39.305Z,4.40
2018-12-27T13:22:09.107Z,4.40
2018-12-27T13:24:45.194Z,4.40
2018-12-27T13:27:14.391Z,4.40
2018-12-27T13:29:48.371Z,4.50
2018-12-27T13:32:19.078Z,4.40
2018-12-27T13:34:51.510Z,4.40
2018-12-27T13:37:23.443Z,4.40
2018-12-27T13:39:52.656Z,4.30
2018-12-27T13:42:24.038Z,4.30
2018-12-27T13:44:53.350Z,4.40
2018-12-27T13:47:26.781Z,4.40
2018-12-27T13:50:10.193Z,4.30
2018-12-27T13:52:35.097Z,4.30
2018-12-27T13:55:08.990Z,4.30
2018-12-27T13:57:44.811Z,4.30
2018-12-27T14:00:18.539Z,4.40
2018-12-27T14:02:51.565Z,4.30
2018-12-27T14:05:21.553Z,4.30
2018-12-27T14:08:14.716Z,4.30
2018-12-27T14:10:49.465Z,4.30
2018-12-27T14:13:26.079Z,4.30
2018-12-27T14:15:54.901Z,4.30
2018-12-27T14:18:26.658Z,4.30
2018-12-27T14:20:55.164Z,4.20
2018-12-27T14:23:25.155Z,4.20
2018-12-27T14:25:54.329Z,4.10
2018-12-27T14:28:24.281Z,4.10
2018-12-27T14:30:54.420Z,4.10
2018-12-27T14:33:23.479Z,4.10
2018-12-27T14:35:53.350Z,4.10
2018-12-27T14:38:22.939Z,4.10
2018-12-27T14:40:56.648Z,4.00
2018-12-27T14:43:26.496Z,3.90
2018-12-27T14:45:58.718Z,3.90
2018-12-27T14:48:27.881Z,3.90
2018-12-27T14:50:57.705Z,3.90
2018-12-27T14:53:27.441Z,3.90
2018-12-27T14:56:03.383Z,3.90
2018-12-27T14:58:33.336Z,3.80
2018-12-27T15:01:01.755Z,3.80
2018-12-27T15:03:35.859Z,3.80
2018-12-27T15:06:04.270Z,3.80
2018-12-27T15:08:33.696Z,3.80
2018-12-27T15:11:02.382Z,3.80
2018-12-27T15:13:30.970Z,3.80
2018-12-27T15:15:59.645Z,3.90
2018-12-27T15:18:28.284Z,3.80
2018-12-27T15:20:56.798Z,3.80
2018-12-27T15:23:25.360Z,3.80
2018-12-27T15:25:53.920Z,3.90
2018-12-27T15:28:22.368Z,3.90
2018-12-27T15:30:50.775Z,3.90
2018-12-27T15:33:19.186Z,3.90
2018-12-27T15:35:48.449Z,3.90
2018-12-27T15:38:17.324Z,3.90
2018-12-27T15:40:45.806Z,3.90
2018-12-27T15:43:14.626Z,3.90
2018-12-27T15:45:43.034Z,3.90
2018-12-27T15:48:11.431Z,3.90
2018-12-27T15:50:40.288Z,3.90
2018-12-27T15:53:08.977Z,3.80
2018-12-27T15:55:37.561Z,3.90
2018-12-27T15:58:06.242Z,3.80
2018-12-27T16:00:35.297Z,3.80
2018-12-27T16:03:03.711Z,3.70
2018-12-27T16:05:32.153Z,3.80
2018-12-27T16:08:00.764Z,3.80
2018-12-27T16:10:29.426Z,3.70
2018-12-27T16:12:58.387Z,3.70
2018-12-27T16:15:26.784Z,3.70
2018-12-27T16:17:58.404Z,3.70
2018-12-27T16:20:27.440Z,3.70
2018-12-27T16:22:55.762Z,3.70
2018-12-27T16:25:24.332Z,3.70
2018-12-27T16:27:52.757Z,3.70
2018-12-27T16:30:21.365Z,3.70
2018-12-27T16:32:50.083Z,3.70
2018-12-27T16:35:19.501Z,3.70
2018-12-27T16:37:48.315Z,3.80
2018-12-27T16:40:17.246Z,3.80
2018-12-27T16:42:46.013Z,3.90
2018-12-27T16:45:14.415Z,3.90
2018-12-27T16:47:43.462Z,3.90
2018-12-27T16:50:11.911Z,3.80
2018-12-27T16:52:40.421Z,3.70
2018-12-27T16:55:09.030Z,3.70
2018-12-27T16:57:37.560Z,3.80
2018-12-27T17:00:08.069Z,3.80
2018-12-27T17:02:36.756Z,3.80
2018-12-27T17:05:06.225Z,3.80
2018-12-27T17:07:35.163Z,3.80
2018-12-27T17:10:03.854Z,3.80
2018-12-27T17:12:32.913Z,3.80
2018-12-27T17:15:04.581Z,3.80
2018-12-27T17:17:33.008Z,3.80
2018-12-27T17:20:01.722Z,3.80
2018-12-27T17:22:32.626Z,3.80
2018-12-27T17:25:01.434Z,3.80
2018-12-27T17:27:31.717Z,3.90
2018-12-27T17:30:00.648Z,3.80
2018-12-27T17:32:29.270Z,3.80
2018-12-27T17:34:58.015Z,3.80
2018-12-27T17:37:26.827Z,3.80
2018-12-27T17:39:55.478Z,3.80
2018-12-27T17:42:24.140Z,3.80
2018-12-27T17:44:52.893Z,3.70
2018-12-27T17:47:21.329Z,3.70
2018-12-27T17:49:49.911Z,3.70
2018-12-27T17:52:18.604Z,3.70
2018-12-27T17:54:47.268Z,3.60
2018-12-27T17:57:15.798Z,3.60
2018-12-27T17:59:44.389Z,3.60
2018-12-27T18:02:12.951Z,3.50
2018-12-27T18:04:42.000Z,3.50
2018-12-27T18:07:11.257Z,3.50
2018-12-27T18:09:39.776Z,3.50
2018-12-27T18:12:08.943Z,3.50
2018-12-27T18:14:38.063Z,3.50
2018-12-27T18:17:06.526Z,3.50
2018-12-27T18:19:35.180Z,3.60
2018-12-27T18:22:04.116Z,3.60
2018-12-27T18:24:34.178Z,3.70
2018-12-27T18:27:02.562Z,3.70
2018-12-27T18:29:35.699Z,3.70
2018-12-27T18:32:08.237Z,3.80
2018-12-27T18:37:37.678Z,3.90
2018-12-27T18:40:12.974Z,3.90
2018-12-27T18:42:46.199Z,4.00
2018-12-27T18:45:19.201Z,4.00
2018-12-27T18:47:50.499Z,4.00
2018-12-27T18:50:19.553Z,4.00
2018-12-27T18:52:48.073Z,4.00
2018-12-27T18:55:20.255Z,3.90
2018-12-27T18:57:47.136Z,3.90
2018-12-27T19:00:15.614Z,4.00
2018-12-27T19:02:44.036Z,4.00
2018-12-27T19:05:12.796Z,4.00
2018-12-27T19:07:45.082Z,3.90
2018-12-27T19:10:11.888Z,4.00
2018-12-27T19:13:03.390Z,4.00
2018-12-27T19:15:34.272Z,4.00
2018-12-27T19:18:05.050Z,4.00
2018-12-27T19:20:34.795Z,3.90
2018-12-27T19:23:13.269Z,3.90
2018-12-27T19:25:41.717Z,3.90
2018-12-27T19:28:10.787Z,3.90
2018-12-27T19:30:39.940Z,3.90
2018-12-27T19:33:08.323Z,3.90
2018-12-27T19:35:37.338Z,3.90
2018-12-27T19:38:06.096Z,3.90
2018-12-27T19:40:34.911Z,3.80
2018-12-27T19:43:03.364Z,3.80
2018-12-27T19:45:31.885Z,3.80
2018-12-27T19:48:00.805Z,3.80
2018-12-27T19:50:29.393Z,3.80
2018-12-27T19:52:57.818Z,3.90
2018-12-27T19:55:26.350Z,3.90
2018-12-27T19:57:54.741Z,4.00
2018-12-27T20:00:25.919Z,4.00
2018-12-27T20:02:54.658Z,4.00
2018-12-27T20:05:23.299Z,4.00
2018-12-27T20:07:59.061Z,4.00
2018-12-27T20:10:22.377Z,3.90
2018-12-27T20:12:50.878Z,3.90
2018-12-27T20:15:22.304Z,3.90
2018-12-27T20:17:50.866Z,3.90
2018-12-27T20:20:20.239Z,3.90
2018-12-27T20:22:49.274Z,3.80
2018-12-27T20:25:17.945Z,3.80
2018-12-27T20:27:48.148Z,3.80
2018-12-27T20:30:16.825Z,3.80
2018-12-27T20:32:45.389Z,3.80
2018-12-27T20:35:13.913Z,3.80
2018-12-27T20:37:43.941Z,3.80
2018-12-27T20:40:12.576Z,3.80
2018-12-27T20:42:41.580Z,3.80
2018-12-27T20:45:13.363Z,3.80
2018-12-27T20:47:42.048Z,3.90
2018-12-27T20:50:10.932Z,3.90
2018-12-27T20:52:39.762Z,3.80
2018-12-27T20:55:08.916Z,3.80
2018-12-27T20:57:37.761Z,3.80
2018-12-27T21:00:07.445Z,3.80
2018-12-27T21:02:37.434Z,3.80
2018-12-27T21:05:06.140Z,3.80
2018-12-27T21:07:34.816Z,3.90
2018-12-27T21:10:03.553Z,3.90
2018-12-27T21:12:32.373Z,3.80
2018-12-27T21:15:00.914Z,3.80
2018-12-27T21:17:29.745Z,3.80
2018-12-27T21:19:58.161Z,3.80
2018-12-27T21:22:27.071Z,3.90
2018-12-27T21:24:55.812Z,3.90
2018-12-27T21:27:25.100Z,4.00
2018-12-27T21:29:53.710Z,3.90
2018-12-27T21:32:22.464Z,3.90
2018-12-27T21:34:53.917Z,3.90
2018-12-27T21:37:22.619Z,4.00
2018-12-27T21:39:51.100Z,4.00
2018-12-27T21:42:19.570Z,3.90
2018-12-27T21:44:48.689Z,3.90
2018-12-27T21:47:17.332Z,3.90
2018-12-27T21:49:45.782Z,3.80
2018-12-27T21:52:14.811Z,4.00
2018-12-27T21:54:43.192Z,4.00
2018-12-27T21:57:11.670Z,4.00
2018-12-27T21:59:40.741Z,4.10
2018-12-27T22:02:09.362Z,4.20
2018-12-27T22:04:37.979Z,4.10
2018-12-27T22:07:06.782Z,4.10
2018-12-27T22:09:35.456Z,4.10
2018-12-27T22:12:05.631Z,4.10
2018-12-27T22:14:34.569Z,4.30
2018-12-27T22:17:04.164Z,4.20
2018-12-27T22:19:32.664Z,4.20
2018-12-27T22:22:01.098Z,4.10
2018-12-27T22:24:29.620Z,4.10
2018-12-27T22:26:58.239Z,4.10
2018-12-27T22:29:26.684Z,4.10
2018-12-27T22:31:56.891Z,4.20
2018-12-27T22:34:25.334Z,4.20
2018-12-27T22:36:53.851Z,4.10
2018-12-27T22:39:23.033Z,4.10
2018-12-27T22:41:53.488Z,4.10
2018-12-27T22:44:21.919Z,4.00
2018-12-27T22:46:50.307Z,4.10
2018-12-27T22:49:18.769Z,4.00
2018-12-27T22:51:48.562Z,4.10
2018-12-27T22:54:17.021Z,4.00
2018-12-27T22:56:45.664Z,4.10
2018-12-27T22:59:14.143Z,4.10
2018-12-27T23:01:42.728Z,4.10
2018-12-27T23:04:12.223Z,4.10
2018-12-27T23:06:40.743Z,4.10
2018-12-27T23:09:09.567Z,4.10
2018-12-27T23:11:38.307Z,4.10
2018-12-27T23:14:07.431Z,4.20
2018-12-27T23:16:35.901Z,4.10
2018-12-27T23:19:04.294Z,4.20
2018-12-27T23:21:32.937Z,4.10
2018-12-27T23:24:01.682Z,4.10
2018-12-27T23:26:30.298Z,4.20
2018-12-27T23:28:59.596Z,4.20
2018-12-27T23:31:27.989Z,4.20
2018-12-27T23:33:56.383Z,4.20
2018-12-27T23:36:24.980Z,4.10
2018-12-27T23:38:53.451Z,4.10
2018-12-27T23:41:21.975Z,4.10
2018-12-27T23:43:50.697Z,4.20
2018-12-27T23:46:19.548Z,4.20
2018-12-27T23:48:48.017Z,4.10
2018-12-27T23:51:17.120Z,4.10
2018-12-27T23:53:45.655Z,4.10
2018-12-27T23:56:14.049Z,4.10
2018-12-27T23:58:42.903Z,4.10
